createdAt,value
2016-12-24T00:00:25.395Z,24.51
2016-12-24T00:01:05.883Z,24.7
2016-12-24T00:01:46.382Z,24.51
2016-12-24T00:02:26.884Z,24.7
2016-12-24T00:03:07.383Z,24.51
2016-12-24T00:03:47.881Z,24.41
2016-12-24T00:04:28.381Z,24.41
2016-12-24T00:05:08.880Z,24.41
2016-12-24T00:05:49.377Z,24.51
2016-12-24T00:06:29.859Z,24.51
2016-12-24T00:07:10.349Z,24.51
2016-12-24T00:07:50.850Z,24.51
2016-12-24T00:08:31.349Z,24.43
2016-12-24T00:09:11.869Z,24.51
2016-12-24T00:09:52.350Z,24.41
2016-12-24T00:10:33.619Z,24.52
2016-12-24T00:11:13.354Z,24.41
2016-12-24T00:11:53.855Z,24.41
2016-12-24T00:12:34.337Z,24.51
2016-12-24T00:13:14.838Z,24.52
2016-12-24T00:13:55.325Z,24.41
2016-12-24T00:14:35.830Z,24.43
2016-12-24T00:15:16.315Z,24.41
2016-12-24T00:15:56.800Z,24.52
2016-12-24T00:16:37.294Z,24.32
2016-12-24T00:17:17.772Z,24.41
2016-12-24T00:17:58.268Z,24.41
2016-12-24T00:18:38.766Z,24.41
2016-12-24T00:19:19.281Z,24.41
2016-12-24T00:19:59.769Z,24.41
2016-12-24T00:20:40.271Z,24.41
2016-12-24T00:21:20.765Z,24.51
2016-12-24T00:22:01.777Z,24.32
2016-12-24T00:22:42.249Z,24.51
2016-12-24T00:23:22.734Z,24.41
2016-12-24T00:24:03.244Z,24.32
2016-12-24T00:24:43.726Z,24.41
2016-12-24T00:25:24.241Z,24.41
2016-12-24T00:26:04.725Z,24.41
2016-12-24T00:26:45.216Z,24.62
2016-12-24T00:27:25.720Z,24.51
2016-12-24T00:28:06.232Z,24.41
2016-12-24T00:28:46.727Z,24.52
2016-12-24T00:29:27.230Z,24.51
2016-12-24T00:30:07.720Z,24.7
2016-12-24T00:30:48.228Z,24.41
2016-12-24T00:31:28.719Z,24.61
2016-12-24T00:32:09.225Z,24.61
2016-12-24T00:32:49.715Z,24.61
2016-12-24T00:33:30.211Z,24.7
2016-12-24T00:34:10.693Z,24.7
2016-12-24T00:34:51.191Z,24.9
2016-12-24T00:35:31.676Z,24.61
2016-12-24T00:36:12.163Z,24.7
2016-12-24T00:36:52.673Z,24.9
2016-12-24T00:37:33.162Z,24.9
2016-12-24T00:38:13.666Z,24.8
2016-12-24T00:38:54.161Z,24.8
2016-12-24T00:39:34.654Z,24.9
2016-12-24T00:40:15.159Z,24.7
2016-12-24T00:40:56.267Z,24.8
2016-12-24T00:41:36.760Z,24.9
2016-12-24T00:42:17.251Z,24.8
2016-12-24T00:42:57.739Z,24.9
2016-12-24T00:43:38.221Z,24.9
2016-12-24T00:44:18.725Z,24.8
2016-12-24T00:44:59.216Z,24.9
2016-12-24T00:45:39.725Z,24.7
2016-12-24T00:46:20.215Z,24.7
2016-12-24T00:47:00.712Z,24.8
2016-12-24T00:47:41.232Z,24.9
2016-12-24T00:48:21.725Z,24.8
2016-12-24T00:49:02.214Z,24.9
2016-12-24T00:49:42.706Z,24.9
2016-12-24T00:50:23.202Z,24.9
2016-12-24T00:51:03.690Z,25.18
2016-12-24T00:51:44.180Z,24.61
2016-12-24T00:52:24.661Z,24.9
2016-12-24T00:53:06.134Z,24.9
2016-12-24T00:53:45.657Z,24.8
2016-12-24T00:54:26.166Z,24.8
2016-12-24T00:55:06.655Z,25.18
2016-12-24T00:55:47.153Z,24.99
2016-12-24T00:56:27.654Z,24.99
2016-12-24T00:57:08.163Z,25.28
2016-12-24T00:57:48.652Z,24.99
2016-12-24T00:58:29.148Z,24.99
2016-12-24T00:59:09.629Z,25.18
2016-12-24T00:59:50.118Z,25.18
2016-12-24T01:00:30.610Z,25.09
2016-12-24T01:01:11.111Z,25.28
2016-12-24T01:01:51.609Z,24.99
2016-12-24T01:02:32.096Z,24.99
2016-12-24T01:03:12.596Z,25.18
2016-12-24T01:03:53.980Z,24.99
2016-12-24T01:04:34.497Z,24.99
2016-12-24T01:05:14.986Z,25.09
2016-12-24T01:05:55.471Z,25.09
2016-12-24T01:06:35.978Z,25.09
2016-12-24T01:07:16.465Z,25.09
2016-12-24T01:07:56.960Z,25.09
2016-12-24T01:08:37.450Z,25.09
2016-12-24T01:09:17.943Z,25.18
2016-12-24T01:09:58.436Z,25.18
2016-12-24T01:10:39.639Z,24.9
2016-12-24T01:11:19.423Z,24.9
2016-12-24T01:11:59.912Z,25.09
2016-12-24T01:12:40.417Z,25.09
2016-12-24T01:13:20.907Z,24.9
2016-12-24T01:14:02.140Z,25.18
2016-12-24T01:14:41.913Z,25.28
2016-12-24T01:15:22.421Z,25.28
2016-12-24T01:16:02.906Z,25.28
2016-12-24T01:16:43.398Z,25.18
2016-12-24T01:17:24.600Z,25.09
2016-12-24T01:18:05.094Z,24.99
2016-12-24T01:18:45.614Z,25.18
2016-12-24T01:19:26.087Z,25.18
2016-12-24T01:20:06.607Z,25.18
2016-12-24T01:20:47.199Z,25.18
2016-12-24T01:21:27.688Z,24.99
2016-12-24T01:22:08.158Z,25.09
2016-12-24T01:22:48.660Z,25.09
2016-12-24T01:23:29.145Z,24.9
2016-12-24T01:24:09.649Z,24.99
2016-12-24T01:24:50.140Z,24.99
2016-12-24T01:25:30.639Z,25.38
2016-12-24T01:26:11.136Z,24.99
2016-12-24T01:26:51.631Z,24.99
2016-12-24T01:27:32.128Z,24.99
2016-12-24T01:28:12.612Z,25.18
2016-12-24T01:28:53.108Z,25.18
2016-12-24T01:29:33.607Z,25.18
2016-12-24T01:30:14.117Z,25.38
2016-12-24T01:30:54.608Z,25.18
2016-12-24T01:31:35.106Z,25.38
2016-12-24T01:32:15.612Z,25.18
2016-12-24T01:32:56.102Z,25.18
2016-12-24T01:33:36.596Z,25.28
2016-12-24T01:34:17.082Z,25.18
2016-12-24T01:34:57.574Z,25.28
2016-12-24T01:35:38.058Z,25.28
2016-12-24T01:36:18.564Z,25.18
2016-12-24T01:36:59.052Z,25.38
2016-12-24T01:37:39.563Z,25.38
2016-12-24T01:38:20.051Z,25.28
2016-12-24T01:39:00.548Z,25.38
2016-12-24T01:39:41.048Z,25.38
2016-12-24T01:40:21.558Z,25.47
2016-12-24T01:41:02.048Z,25.28
2016-12-24T01:41:42.558Z,25.38
2016-12-24T01:42:23.050Z,25.38
2016-12-24T01:43:03.548Z,25.38
2016-12-24T01:43:44.043Z,25.09
2016-12-24T01:44:24.555Z,25.18
2016-12-24T01:45:05.045Z,25.18
2016-12-24T01:45:45.538Z,25.09
2016-12-24T01:46:26.035Z,25.18
2016-12-24T01:47:06.519Z,25.38
2016-12-24T01:47:47.011Z,24.99
2016-12-24T01:48:27.497Z,24.99
2016-12-24T01:49:07.996Z,25.09
2016-12-24T01:49:48.489Z,24.99
2016-12-24T01:50:28.985Z,25.09
2016-12-24T01:51:09.487Z,25.38
2016-12-24T01:51:49.972Z,25.47
2016-12-24T01:52:30.483Z,25.38
2016-12-24T01:53:10.950Z,25.47
2016-12-24T01:53:51.447Z,25.38
2016-12-24T01:54:31.933Z,25.38
2016-12-24T01:55:12.443Z,25.38
2016-12-24T01:55:52.936Z,25.38
2016-12-24T01:56:33.427Z,25.28
2016-12-24T01:57:13.925Z,25.38
2016-12-24T01:57:54.406Z,25.47
2016-12-24T01:58:34.906Z,25.38
2016-12-24T01:59:15.408Z,25.18
2016-12-24T01:59:55.896Z,25.28
2016-12-24T02:00:36.381Z,25.38
2016-12-24T02:01:16.876Z,25.28
2016-12-24T02:01:57.364Z,25.18
2016-12-24T02:02:37.838Z,25.28
2016-12-24T02:03:18.332Z,25.18
2016-12-24T02:03:58.822Z,25.18
2016-12-24T02:04:39.298Z,25.28
2016-12-24T02:05:19.785Z,25.18
2016-12-24T02:06:00.271Z,25.28
2016-12-24T02:06:40.779Z,25.38
2016-12-24T02:07:21.267Z,25.38
2016-12-24T02:08:01.780Z,25.38
2016-12-24T02:08:42.267Z,25.38
2016-12-24T02:09:22.779Z,25.38
2016-12-24T02:10:03.263Z,25.28
2016-12-24T02:10:43.763Z,25.38
2016-12-24T02:11:24.263Z,25.47
2016-12-24T02:12:04.749Z,25.67
2016-12-24T02:12:45.234Z,25.57
2016-12-24T02:13:25.725Z,25.47
2016-12-24T02:14:06.220Z,25.67
2016-12-24T02:14:46.707Z,25.47
2016-12-24T02:15:27.221Z,25.47
2016-12-24T02:16:07.710Z,25.57
2016-12-24T02:16:48.215Z,25.47
2016-12-24T02:17:28.871Z,25.57
2016-12-24T02:18:09.361Z,25.57
2016-12-24T02:18:49.855Z,25.57
2016-12-24T02:19:30.356Z,25.47
2016-12-24T02:20:10.862Z,25.47
2016-12-24T02:20:51.354Z,25.47
2016-12-24T02:21:31.848Z,25.57
2016-12-24T02:22:12.354Z,25.47
2016-12-24T02:22:52.842Z,25.57
2016-12-24T02:23:33.326Z,25.67
2016-12-24T02:24:13.815Z,25.57
2016-12-24T02:24:54.310Z,25.67
2016-12-24T02:25:34.800Z,25.67
2016-12-24T02:26:15.299Z,25.57
2016-12-24T02:26:55.797Z,25.57
2016-12-24T02:27:36.296Z,25.67
2016-12-24T02:28:16.802Z,25.76
2016-12-24T02:28:57.304Z,25.67
2016-12-24T02:29:37.803Z,25.47
2016-12-24T02:30:18.306Z,25.76
2016-12-24T02:30:58.796Z,25.67
2016-12-24T02:31:39.310Z,25.67
2016-12-24T02:32:19.803Z,25.67
2016-12-24T02:33:00.343Z,25.67
2016-12-24T02:33:40.860Z,25.67
2016-12-24T02:34:21.347Z,25.67
2016-12-24T02:35:01.821Z,25.67
2016-12-24T02:35:42.315Z,25.76
2016-12-24T02:36:22.802Z,25.67
2016-12-24T02:37:03.299Z,25.67
2016-12-24T02:37:43.791Z,25.67
2016-12-24T02:38:24.304Z,25.95
2016-12-24T02:39:04.792Z,25.95
2016-12-24T02:39:45.297Z,25.95
2016-12-24T02:40:25.785Z,25.95
2016-12-24T02:42:23.446Z,25.85
2016-12-24T02:43:03.958Z,25.85
2016-12-24T02:43:44.448Z,25.95
2016-12-24T02:44:24.936Z,25.95
2016-12-24T02:45:05.405Z,25.85
2016-12-24T02:45:45.891Z,25.85
2016-12-24T02:46:26.384Z,25.76
2016-12-24T02:47:06.908Z,25.85
2016-12-24T02:47:47.380Z,25.85
2016-12-24T02:48:27.878Z,25.85
2016-12-24T02:49:08.362Z,25.76
2016-12-24T02:49:49.547Z,25.85
2016-12-24T02:50:30.053Z,25.76
2016-12-24T02:51:10.568Z,25.76
2016-12-24T02:51:51.053Z,25.76
2016-12-24T02:52:31.558Z,25.85
2016-12-24T02:53:12.046Z,26.05
2016-12-24T02:53:52.545Z,26.05
2016-12-24T02:54:34.032Z,26.05
2016-12-24T02:55:13.540Z,26.05
2016-12-24T02:55:54.023Z,26.15
2016-12-24T02:56:34.521Z,26.05
2016-12-24T02:57:15.021Z,25.95
2016-12-24T02:57:55.524Z,25.95
2016-12-24T02:58:36.009Z,26.05
2016-12-24T02:59:16.492Z,26.05
2016-12-24T02:59:57.002Z,26.05
2016-12-24T03:00:37.489Z,25.95
2016-12-24T03:01:17.983Z,26.05
2016-12-24T03:01:58.482Z,25.95
2016-12-24T03:04:11.293Z,25.85
2016-12-24T03:04:51.789Z,25.95
2016-12-24T03:05:32.275Z,25.95
2016-12-24T03:06:12.764Z,25.95
2016-12-24T03:06:53.257Z,25.85
2016-12-24T03:07:34.643Z,26.24
2016-12-24T03:08:15.128Z,25.95
2016-12-24T03:08:55.611Z,25.95
2016-12-24T03:09:36.107Z,25.95
2016-12-24T03:10:16.597Z,25.85
2016-12-24T03:10:57.079Z,26.34
2016-12-24T03:11:37.565Z,26.24
2016-12-24T03:12:18.060Z,26.24
2016-12-24T03:12:58.559Z,26.24
2016-12-24T03:13:39.075Z,26.24
2016-12-24T03:14:19.563Z,26.24
2016-12-24T03:15:00.053Z,26.24
2016-12-24T03:15:40.523Z,26.24
2016-12-24T03:16:21.007Z,26.15
2016-12-24T03:17:01.504Z,26.15
2016-12-24T03:17:41.985Z,26.15
2016-12-24T03:18:22.468Z,26.15
2016-12-24T03:19:02.965Z,26.24
2016-12-24T03:19:43.453Z,26.24
2016-12-24T03:20:23.961Z,26.15
2016-12-24T03:21:04.448Z,26.15
2016-12-24T03:21:44.952Z,26.24
2016-12-24T03:22:25.450Z,26.15
2016-12-24T03:23:06.096Z,26.24
2016-12-24T03:23:46.612Z,26.15
2016-12-24T03:24:27.102Z,26.15
2016-12-24T03:25:07.579Z,26.15
2016-12-24T03:26:55.104Z,25.95
2016-12-24T03:27:35.584Z,25.95
2016-12-24T03:28:16.936Z,26.05
2016-12-24T03:28:57.440Z,25.95
2016-12-24T03:29:37.939Z,26.05
2016-12-24T03:30:18.453Z,26.05
2016-12-24T03:30:58.950Z,26.05
2016-12-24T03:31:39.439Z,26.05
2016-12-24T03:32:19.933Z,26.05
2016-12-24T03:33:00.414Z,26.15
2016-12-24T03:33:41.784Z,26.15
2016-12-24T03:34:22.267Z,26.05
2016-12-24T03:35:02.763Z,26.05
2016-12-24T03:35:43.251Z,26.05
2016-12-24T03:36:23.745Z,26.05
2016-12-24T03:37:04.229Z,26.05
2016-12-24T03:37:45.592Z,25.95
2016-12-24T03:38:26.071Z,26.15
2016-12-24T03:39:06.558Z,26.05
2016-12-24T03:39:47.046Z,26.05
2016-12-24T03:40:27.518Z,26.05
2016-12-24T03:41:08.013Z,26.05
2016-12-24T03:41:48.494Z,26.15
2016-12-24T03:42:28.989Z,26.05
2016-12-24T03:43:09.492Z,26.15
2016-12-24T03:43:49.980Z,26.15
2016-12-24T03:44:30.470Z,26.24
2016-12-24T03:45:11.829Z,26.24
2016-12-24T03:45:52.331Z,26.24
2016-12-24T03:46:32.855Z,26.34
2016-12-24T03:47:13.333Z,26.34
2016-12-24T03:47:53.838Z,26.34
2016-12-24T03:48:34.337Z,26.15
2016-12-24T03:49:15.657Z,26.15
2016-12-24T03:49:55.303Z,26.43
2016-12-24T03:50:35.808Z,26.43
2016-12-24T03:51:16.285Z,26.43
2016-12-24T03:51:57.659Z,26.43
2016-12-24T03:52:37.255Z,26.43
2016-12-24T03:53:17.736Z,26.43
2016-12-24T03:53:58.223Z,26.34
2016-12-24T03:54:38.715Z,26.34
2016-12-24T03:55:19.220Z,26.43
2016-12-24T03:55:59.712Z,26.43
2016-12-24T03:56:40.193Z,26.53
2016-12-24T03:57:20.671Z,26.43
2016-12-24T03:58:01.167Z,26.34
2016-12-24T03:58:41.645Z,26.34
2016-12-24T03:59:22.141Z,26.34
2016-12-24T04:00:02.631Z,26.43
2016-12-24T04:00:43.113Z,26.62
2016-12-24T04:01:24.503Z,26.62
2016-12-24T04:02:05.001Z,26.62
2016-12-24T04:02:45.478Z,26.62
2016-12-24T04:03:25.977Z,26.72
2016-12-24T04:04:06.581Z,26.72
2016-12-24T04:04:47.078Z,26.62
2016-12-24T04:05:27.577Z,26.62
2016-12-24T04:06:08.060Z,26.62
2016-12-24T04:06:48.555Z,26.72
2016-12-24T04:07:29.041Z,26.72
2016-12-24T04:08:09.541Z,26.53
2016-12-24T04:08:50.028Z,26.62
2016-12-24T04:09:31.038Z,26.62
2016-12-24T04:10:11.535Z,26.62
2016-12-24T04:10:52.049Z,26.62
2016-12-24T04:11:32.537Z,26.62
2016-12-24T04:12:13.035Z,26.72
2016-12-24T04:12:53.527Z,26.72
2016-12-24T04:13:34.017Z,26.53
2016-12-24T04:14:14.505Z,26.62
2016-12-24T04:14:54.988Z,26.62
2016-12-24T04:15:35.496Z,26.62
2016-12-24T04:16:15.983Z,26.53
2016-12-24T04:16:56.485Z,26.53
2016-12-24T04:17:36.978Z,26.34
2016-12-24T04:18:17.480Z,26.43
2016-12-24T04:18:57.978Z,26.53
2016-12-24T04:19:38.485Z,26.34
2016-12-24T04:20:18.980Z,26.53
2016-12-24T04:20:59.493Z,26.53
2016-12-24T04:21:39.983Z,26.43
2016-12-24T04:22:20.487Z,26.43
2016-12-24T04:23:00.972Z,26.43
2016-12-24T04:23:41.471Z,26.53
2016-12-24T04:24:21.951Z,26.43
2016-12-24T04:25:02.444Z,26.34
2016-12-24T04:25:42.934Z,26.43
2016-12-24T04:26:23.421Z,26.43
2016-12-24T04:27:03.917Z,26.43
2016-12-24T04:27:44.388Z,26.34
2016-12-24T04:28:25.686Z,26.43
2016-12-24T04:29:05.364Z,26.43
2016-12-24T04:29:46.676Z,26.34
2016-12-24T04:30:26.381Z,26.43
2016-12-24T04:31:06.871Z,26.43
2016-12-24T04:31:47.373Z,26.43
2016-12-24T04:32:27.863Z,26.72
2016-12-24T04:33:08.379Z,26.53
2016-12-24T04:33:48.863Z,26.62
2016-12-24T04:34:29.379Z,26.53
2016-12-24T04:35:09.863Z,26.72
2016-12-24T04:35:50.380Z,26.53
2016-12-24T04:36:30.870Z,26.43
2016-12-24T04:37:11.370Z,26.72
2016-12-24T04:37:51.863Z,26.53
2016-12-24T04:38:32.359Z,26.53
2016-12-24T04:39:14.459Z,26.72
2016-12-24T04:39:54.947Z,26.62
2016-12-24T04:40:35.440Z,26.72
2016-12-24T04:41:15.940Z,26.82
2016-12-24T04:41:56.456Z,26.72
2016-12-24T04:42:36.944Z,26.72
2016-12-24T04:43:17.440Z,26.72
2016-12-24T04:43:57.939Z,26.53
2016-12-24T04:44:38.435Z,26.82
2016-12-24T04:45:18.929Z,26.72
2016-12-24T04:45:59.422Z,26.72
2016-12-24T04:46:39.987Z,26.72
2016-12-24T04:47:20.385Z,26.72
2016-12-24T04:48:00.895Z,26.72
2016-12-24T04:48:41.386Z,26.82
2016-12-24T04:49:21.862Z,26.72
2016-12-24T04:50:02.355Z,26.82
2016-12-24T04:50:42.837Z,26.82
2016-12-24T04:51:23.342Z,26.72
2016-12-24T04:52:03.831Z,26.72
2016-12-24T04:52:44.331Z,26.72
2016-12-24T04:53:24.821Z,26.72
2016-12-24T04:54:05.325Z,26.82
2016-12-24T04:54:45.963Z,26.82
2016-12-24T04:55:26.449Z,26.82
2016-12-24T04:56:06.932Z,26.82
2016-12-24T04:56:47.442Z,26.72
2016-12-24T04:57:27.932Z,26.82
2016-12-24T04:58:08.430Z,26.72
2016-12-24T04:58:48.928Z,26.72
2016-12-24T04:59:29.421Z,26.72
2016-12-24T05:00:09.924Z,26.92
2016-12-24T05:00:50.387Z,26.62
2016-12-24T05:01:30.886Z,26.53
2016-12-24T05:02:11.388Z,26.72
2016-12-24T05:02:51.882Z,26.72
2016-12-24T05:03:32.372Z,26.72
2016-12-24T05:04:12.874Z,26.82
2016-12-24T05:04:53.370Z,26.62
2016-12-24T05:05:33.868Z,26.53
2016-12-24T05:06:14.350Z,26.62
2016-12-24T05:06:54.851Z,26.62
2016-12-24T05:07:35.334Z,26.62
2016-12-24T05:08:15.820Z,26.62
2016-12-24T05:08:56.301Z,26.62
2016-12-24T05:09:36.791Z,26.62
2016-12-24T05:10:17.282Z,26.62
2016-12-24T05:10:57.777Z,26.53
2016-12-24T05:11:38.263Z,26.62
2016-12-24T05:12:18.762Z,26.82
2016-12-24T05:12:59.261Z,26.72
2016-12-24T05:13:39.771Z,26.62
2016-12-24T05:14:20.261Z,26.62
2016-12-24T05:15:00.752Z,26.72
2016-12-24T05:15:41.237Z,26.53
2016-12-24T05:16:21.717Z,26.72
2016-12-24T05:17:02.217Z,26.72
2016-12-24T05:17:42.706Z,26.72
2016-12-24T05:18:23.205Z,26.82
2016-12-24T05:19:03.704Z,26.72
2016-12-24T05:19:44.215Z,26.72
2016-12-24T05:20:24.701Z,26.72
2016-12-24T05:21:05.222Z,26.82
2016-12-24T05:21:45.708Z,26.62
2016-12-24T05:22:26.202Z,26.72
2016-12-24T05:23:06.667Z,26.82
2016-12-24T05:23:47.160Z,26.62
2016-12-24T05:24:27.661Z,26.62
2016-12-24T05:25:08.164Z,26.72
2016-12-24T05:25:48.657Z,26.72
2016-12-24T05:26:29.149Z,26.62
2016-12-24T05:27:09.642Z,26.62
2016-12-24T05:27:50.123Z,26.72
2016-12-24T05:28:30.605Z,26.62
2016-12-24T05:29:11.119Z,26.82
2016-12-24T05:29:51.598Z,26.72
2016-12-24T05:30:32.103Z,26.72
2016-12-24T05:31:12.592Z,26.62
2016-12-24T05:31:53.088Z,26.53
2016-12-24T05:32:33.588Z,26.82
2016-12-24T05:33:14.617Z,26.82
2016-12-24T05:33:55.102Z,26.72
2016-12-24T05:34:35.590Z,26.62
2016-12-24T05:35:16.080Z,26.72
2016-12-24T05:35:56.577Z,26.62
2016-12-24T05:36:37.694Z,26.72
2016-12-24T05:37:17.547Z,26.72
2016-12-24T05:37:58.046Z,26.72
2016-12-24T05:38:38.526Z,26.82
2016-12-24T05:39:19.026Z,26.72
2016-12-24T05:39:59.517Z,26.72
2016-12-24T05:40:40.002Z,26.82
2016-12-24T05:41:20.504Z,26.82
2016-12-24T05:42:00.991Z,26.82
2016-12-24T05:42:41.501Z,26.82
2016-12-24T05:43:21.992Z,26.72
2016-12-24T05:44:02.501Z,26.72
2016-12-24T05:44:42.991Z,26.72
2016-12-24T05:45:23.490Z,26.72
2016-12-24T05:46:03.987Z,26.82
2016-12-24T05:46:44.500Z,26.82
2016-12-24T05:47:24.987Z,26.82
2016-12-24T05:48:05.484Z,26.72
2016-12-24T05:48:45.984Z,26.82
2016-12-24T05:49:26.496Z,26.92
2016-12-24T05:50:06.986Z,26.92
2016-12-24T05:50:47.483Z,26.92
2016-12-24T05:51:27.979Z,26.82
2016-12-24T05:52:08.493Z,26.92
2016-12-24T05:52:48.984Z,26.72
2016-12-24T05:53:29.503Z,26.92
2016-12-24T05:54:09.992Z,27.01
2016-12-24T05:54:50.501Z,27.01
2016-12-24T05:55:30.981Z,26.92
2016-12-24T05:56:12.165Z,26.92
2016-12-24T05:56:52.657Z,26.82
2016-12-24T05:57:33.142Z,26.92
2016-12-24T05:58:13.639Z,26.82
2016-12-24T05:58:54.121Z,26.92
2016-12-24T05:59:34.623Z,26.82
2016-12-24T06:00:15.110Z,26.82
2016-12-24T06:00:55.589Z,26.92
2016-12-24T06:01:36.102Z,26.92
2016-12-24T06:02:16.589Z,26.82
2016-12-24T06:02:57.086Z,26.82
2016-12-24T06:03:37.583Z,26.92
2016-12-24T06:04:18.085Z,26.82
2016-12-24T06:04:58.589Z,26.82
2016-12-24T06:05:39.071Z,26.92
2016-12-24T06:06:19.559Z,26.92
2016-12-24T06:07:00.044Z,26.82
2016-12-24T06:07:40.543Z,26.92
2016-12-24T06:08:21.032Z,26.82
2016-12-24T06:09:01.540Z,27.01
2016-12-24T06:09:42.029Z,26.92
2016-12-24T06:10:22.523Z,26.92
2016-12-24T06:11:02.998Z,26.92
2016-12-24T06:11:43.484Z,27.01
2016-12-24T06:12:23.963Z,27.01
2016-12-24T06:13:04.450Z,27.01
2016-12-24T06:13:44.943Z,26.92
2016-12-24T06:14:25.438Z,26.92
2016-12-24T06:15:05.925Z,26.92
2016-12-24T06:15:46.426Z,27.01
2016-12-24T06:16:26.921Z,26.92
2016-12-24T06:17:07.417Z,27.01
2016-12-24T06:17:47.918Z,27.01
2016-12-24T06:18:28.432Z,27.01
2016-12-24T06:19:08.921Z,26.92
2016-12-24T06:19:49.435Z,27.01
2016-12-24T06:20:29.922Z,27.01
2016-12-24T06:21:10.418Z,27.01
2016-12-24T06:21:50.908Z,27.01
2016-12-24T06:22:31.398Z,27.01
2016-12-24T06:23:11.875Z,27.01
2016-12-24T06:23:52.371Z,27.01
2016-12-24T06:24:32.883Z,27.01
2016-12-24T06:25:13.365Z,27.01
2016-12-24T06:25:53.863Z,27.01
2016-12-24T06:26:34.955Z,27.11
2016-12-24T06:27:15.454Z,26.92
2016-12-24T06:27:55.946Z,27.01
2016-12-24T06:28:36.430Z,26.92
2016-12-24T06:29:16.927Z,27.01
2016-12-24T06:29:57.417Z,27.11
2016-12-24T06:30:37.931Z,27.01
2016-12-24T06:31:18.423Z,26.92
2016-12-24T06:31:58.916Z,27.11
2016-12-24T06:32:39.398Z,27.01
2016-12-24T06:33:19.896Z,27.01
2016-12-24T06:34:00.380Z,27.01
2016-12-24T06:34:40.866Z,27.11
2016-12-24T06:35:21.360Z,27.2
2016-12-24T06:36:02.582Z,27.01
2016-12-24T06:36:43.078Z,27.3
2016-12-24T06:37:23.557Z,27.3
2016-12-24T06:38:04.054Z,27.3
2016-12-24T06:38:44.550Z,27.3
2016-12-24T06:39:25.032Z,27.3
2016-12-24T06:40:05.525Z,27.01
2016-12-24T06:40:46.027Z,27.11
2016-12-24T06:41:26.527Z,27.01
2016-12-24T06:42:07.024Z,27.11
2016-12-24T06:42:47.537Z,27.11
2016-12-24T06:43:28.024Z,27.3
2016-12-24T06:44:08.519Z,27.2
2016-12-24T06:44:49.717Z,27.11
2016-12-24T06:45:29.468Z,27.11
2016-12-24T06:46:09.970Z,27.01
2016-12-24T06:46:50.449Z,27.11
2016-12-24T06:47:30.924Z,27.3
2016-12-24T06:48:11.428Z,27.01
2016-12-24T06:48:51.917Z,27.11
2016-12-24T06:49:32.414Z,27.01
2016-12-24T06:50:12.892Z,26.92
2016-12-24T06:50:53.376Z,27.01
2016-12-24T06:51:33.872Z,27.01
2016-12-24T06:52:14.372Z,27.01
2016-12-24T06:52:54.857Z,27.01
2016-12-24T06:53:35.339Z,27.01
2016-12-24T06:54:15.811Z,27.01
2016-12-24T06:54:56.290Z,27.01
2016-12-24T06:55:36.774Z,27.01
2016-12-24T06:56:17.248Z,27.01
2016-12-24T06:56:57.754Z,27.11
2016-12-24T06:57:38.254Z,27.3
2016-12-24T06:58:19.353Z,27.11
2016-12-24T06:58:59.846Z,27.11
2016-12-24T06:59:40.331Z,27.3
2016-12-24T07:00:20.829Z,27.2
2016-12-24T07:01:01.319Z,27.11
2016-12-24T07:01:41.822Z,27.3
2016-12-24T07:02:22.316Z,27.2
2016-12-24T07:03:02.822Z,27.2
2016-12-24T07:03:43.314Z,27.11
2016-12-24T07:04:23.815Z,27.2
2016-12-24T07:05:04.321Z,27.11
2016-12-24T07:05:44.821Z,27.11
2016-12-24T07:06:25.577Z,27.11
2016-12-24T07:07:06.068Z,27.2
2016-12-24T07:07:46.561Z,27.11
2016-12-24T07:08:27.058Z,27.2
2016-12-24T07:09:07.543Z,27.3
2016-12-24T07:09:48.028Z,27.11
2016-12-24T07:10:28.514Z,27.2
2016-12-24T07:11:09.009Z,27.2
2016-12-24T07:11:49.500Z,27.11
2016-12-24T07:12:29.991Z,27.2
2016-12-24T07:13:11.227Z,27.01
2016-12-24T07:13:50.957Z,27.11
2016-12-24T07:14:31.451Z,27.11
2016-12-24T07:15:11.950Z,27.11
2016-12-24T07:15:52.434Z,27.01
2016-12-24T07:16:32.923Z,27.2
2016-12-24T07:17:13.407Z,27.11
2016-12-24T07:17:53.921Z,27.11
2016-12-24T07:18:34.408Z,27.2
2016-12-24T07:19:14.910Z,27.11
2016-12-24T07:19:55.400Z,27.11
2016-12-24T07:20:35.907Z,27.11
2016-12-24T07:21:16.399Z,27.2
2016-12-24T07:21:56.912Z,27.11
2016-12-24T07:22:37.392Z,27.11
2016-12-24T07:23:17.878Z,27.2
2016-12-24T07:23:58.361Z,27.2
2016-12-24T07:24:38.846Z,27.11
2016-12-24T07:25:19.334Z,27.01
2016-12-24T07:25:59.822Z,27.2
2016-12-24T07:26:40.329Z,27.2
2016-12-24T07:27:21.728Z,27.2
2016-12-24T07:28:01.310Z,27.2
2016-12-24T07:28:41.800Z,27.2
2016-12-24T07:29:22.290Z,27.11
2016-12-24T07:30:02.781Z,27.2
2016-12-24T07:30:43.266Z,27.2
2016-12-24T07:31:23.759Z,27.2
2016-12-24T07:32:04.246Z,27.2
2016-12-24T07:32:44.740Z,27.2
2016-12-24T07:33:25.230Z,27.11
2016-12-24T07:34:05.733Z,27.11
2016-12-24T07:34:46.241Z,27.2
2016-12-24T07:35:26.728Z,27.11
2016-12-24T07:36:07.242Z,27.2
2016-12-24T07:36:47.756Z,27.2
2016-12-24T07:37:28.239Z,27.11
2016-12-24T07:38:08.727Z,27.11
2016-12-24T07:38:49.229Z,27.3
2016-12-24T07:39:29.720Z,27.11
2016-12-24T07:40:10.193Z,27.2
2016-12-24T07:40:50.688Z,27.11
2016-12-24T07:41:31.182Z,27.2
2016-12-24T07:42:11.672Z,27.3
2016-12-24T07:42:52.174Z,27.11
2016-12-24T07:43:32.670Z,27.11
2016-12-24T07:44:13.171Z,27.2
2016-12-24T07:44:53.655Z,27.2
2016-12-24T07:45:34.148Z,27.11
2016-12-24T07:46:14.646Z,27.2
2016-12-24T07:46:55.134Z,27.11
2016-12-24T07:47:35.615Z,27.2
2016-12-24T07:48:16.097Z,27.2
2016-12-24T07:48:56.582Z,27.2
2016-12-24T07:49:37.682Z,27.11
2016-12-24T07:50:18.179Z,27.2
2016-12-24T07:50:58.689Z,27.11
2016-12-24T07:51:39.188Z,27.11
2016-12-24T07:52:19.680Z,27.11
2016-12-24T07:53:00.193Z,27.11
2016-12-24T07:53:40.682Z,27.11
2016-12-24T07:54:21.184Z,27.11
2016-12-24T07:55:01.674Z,27.2
2016-12-24T07:55:42.189Z,27.3
2016-12-24T07:56:22.677Z,27.11
2016-12-24T07:57:03.181Z,27.11
2016-12-24T07:57:43.670Z,27.3
2016-12-24T07:58:24.187Z,27.2
2016-12-24T07:59:04.672Z,27.3
2016-12-24T07:59:45.167Z,27.2
2016-12-24T08:00:25.669Z,27.01
2016-12-24T08:01:06.168Z,27.2
2016-12-24T08:01:46.663Z,27.11
2016-12-24T08:02:27.179Z,27.01
2016-12-24T08:03:07.676Z,27.11
2016-12-24T08:03:48.174Z,27.11
2016-12-24T08:04:28.665Z,27.2
2016-12-24T08:05:09.161Z,26.92
2016-12-24T08:05:49.640Z,27.01
2016-12-24T08:06:30.126Z,27.3
2016-12-24T08:07:10.626Z,27.01
2016-12-24T08:07:51.090Z,27.01
2016-12-24T08:08:31.580Z,27.49
2016-12-24T08:09:12.088Z,27.01
2016-12-24T08:09:52.586Z,27.01
2016-12-24T08:10:33.076Z,27.01
2016-12-24T08:11:13.558Z,26.92
2016-12-24T08:11:54.052Z,27.01
2016-12-24T08:12:34.552Z,27.01
2016-12-24T08:13:15.037Z,27.11
2016-12-24T08:13:55.525Z,27.01
2016-12-24T08:14:36.018Z,27.01
2016-12-24T08:15:16.518Z,26.92
2016-12-24T08:15:57.003Z,27.11
2016-12-24T08:16:37.502Z,27.01
2016-12-24T08:17:17.999Z,27.11
2016-12-24T08:17:58.496Z,27.3
2016-12-24T08:18:38.987Z,27.3
2016-12-24T08:19:19.480Z,27.3
2016-12-24T08:19:59.977Z,27.3
2016-12-24T08:20:40.455Z,27.2
2016-12-24T08:21:20.956Z,27.3
2016-12-24T08:22:01.444Z,27.2
2016-12-24T08:22:41.941Z,27.11
2016-12-24T08:23:22.424Z,27.11
2016-12-24T08:24:02.922Z,27.11
2016-12-24T08:24:43.421Z,27.11
2016-12-24T08:25:23.916Z,27.11
2016-12-24T08:26:04.431Z,27.11
2016-12-24T08:26:44.920Z,27.01
2016-12-24T08:27:25.412Z,27.11
2016-12-24T08:28:05.898Z,27.11
2016-12-24T08:28:46.398Z,27.11
2016-12-24T08:29:27.750Z,27.01
2016-12-24T08:30:08.266Z,27.11
2016-12-24T08:30:48.768Z,27.11
2016-12-24T08:31:29.769Z,27.11
2016-12-24T08:32:09.751Z,27.01
2016-12-24T08:32:50.231Z,26.92
2016-12-24T08:33:30.708Z,26.92
2016-12-24T08:34:11.213Z,26.92
2016-12-24T08:34:51.703Z,27.01
2016-12-24T08:35:32.200Z,27.01
2016-12-24T08:36:12.690Z,26.92
2016-12-24T08:36:53.177Z,26.92
2016-12-24T08:37:33.663Z,26.92
2016-12-24T08:38:14.148Z,26.92
2016-12-24T08:38:54.639Z,27.01
2016-12-24T08:39:35.139Z,26.82
2016-12-24T08:40:15.623Z,26.82
2016-12-24T08:40:56.118Z,26.92
2016-12-24T08:41:36.607Z,26.82
2016-12-24T08:42:17.113Z,26.92
2016-12-24T08:42:57.601Z,26.82
2016-12-24T08:43:38.084Z,26.92
2016-12-24T08:44:18.590Z,26.82
2016-12-24T08:44:59.084Z,26.72
2016-12-24T08:45:39.590Z,26.82
2016-12-24T08:46:20.098Z,26.92
2016-12-24T08:47:00.577Z,26.62
2016-12-24T08:47:41.067Z,26.82
2016-12-24T08:48:21.574Z,26.82